sensor_id;sensor_type;location;lat;lon;timestamp;temperature;humidity
22765;DHT22;11549;50.852;3.816;2023-11-19T00:02:04;14.60;99.90
22765;DHT22;11549;50.852;3.816;2023-11-19T00:04:39;14.60;99.90
22765;DHT22;11549;50.852;3.816;2023-11-19T00:07:07;14.60;99.90
22765;DHT22;11549;50.852;3.816;2023-11-19T00:09:37;14.60;99.90
22765;DHT22;11549;50.852;3.816;2023-11-19T00:12:12;14.70;99.90
22765;DHT22;11549;50.852;3.816;2023-11-19T00:14:41;14.70;99.90
22765;DHT22;11549;50.852;3.816;2023-11-19T00:17:09;14.70;99.90
22765;DHT22;11549;50.852;3.816;2023-11-19T00:19:39;14.60;99.90
22765;DHT22;11549;50.852;3.816;2023-11-19T00:22:12;14.50;99.90
22765;DHT22;11549;50.852;3.816;2023-11-19T00:24:40;14.60;99.90
22765;DHT22;11549;50.852;3.816;2023-11-19T00:27:09;14.60;99.90
22765;DHT22;11549;50.852;3.816;2023-11-19T00:29:38;14.50;99.90
22765;DHT22;11549;50.852;3.816;2023-11-19T00:32:07;14.40;99.90
22765;DHT22;11549;50.852;3.816;2023-11-19T00:34:35;14.40;99.90
22765;DHT22;11549;50.852;3.816;2023-11-19T00:37:05;14.40;99.90
22765;DHT22;11549;50.852;3.816;2023-11-19T00:39:34;14.40;99.90
22765;DHT22;11549;50.852;3.816;2023-11-19T00:42:03;14.40;99.90
22765;DHT22;11549;50.852;3.816;2023-11-19T00:44:32;14.40;99.90
22765;DHT22;11549;50.852;3.816;2023-11-19T00:47:00;14.50;99.90
22765;DHT22;11549;50.852;3.816;2023-11-19T00:49:29;14.50;99.90
22765;DHT22;11549;50.852;3.816;2023-11-19T00:51:57;14.40;99.90
22765;DHT22;11549;50.852;3.816;2023-11-19T00:54:27;14.30;99.90
22765;DHT22;11549;50.852;3.816;2023-11-19T00:56:56;14.30;99.90
22765;DHT22;11549;50.852;3.816;2023-11-19T00:59:25;14.30;99.90
22765;DHT22;11549;50.852;3.816;2023-11-19T01:01:53;14.20;99.90
22765;DHT22;11549;50.852;3.816;2023-11-19T01:04:23;14.30;99.90
22765;DHT22;11549;50.852;3.816;2023-11-19T01:06:52;14.20;99.90
22765;DHT22;11549;50.852;3.816;2023-11-19T01:09:26;14.10;99.90
22765;DHT22;11549;50.852;3.816;2023-11-19T01:11:55;14.00;99.90
22765;DHT22;11549;50.852;3.816;2023-11-19T01:14:23;14.10;99.90
22765;DHT22;11549;50.852;3.816;2023-11-19T01:16:52;14.00;99.90
22765;DHT22;11549;50.852;3.816;2023-11-19T01:19:21;14.00;99.90
22765;DHT22;11549;50.852;3.816;2023-11-19T01:21:50;14.00;99.90
22765;DHT22;11549;50.852;3.816;2023-11-19T01:24:19;14.00;99.90
22765;DHT22;11549;50.852;3.816;2023-11-19T01:26:49;14.00;99.90
22765;DHT22;11549;50.852;3.816;2023-11-19T01:29:18;14.00;99.90
22765;DHT22;11549;50.852;3.816;2023-11-19T01:31:47;14.10;99.90
22765;DHT22;11549;50.852;3.816;2023-11-19T01:34:15;14.00;99.90
22765;DHT22;11549;50.852;3.816;2023-11-19T01:36:44;14.10;99.90
22765;DHT22;11549;50.852;3.816;2023-11-19T01:39:13;14.20;99.90
22765;DHT22;11549;50.852;3.816;2023-11-19T01:41:43;14.20;99.90
22765;DHT22;11549;50.852;3.816;2023-11-19T01:44:13;14.10;99.90
22765;DHT22;11549;50.852;3.816;2023-11-19T01:46:43;14.10;99.90
22765;DHT22;11549;50.852;3.816;2023-11-19T01:49:13;14.00;99.90
22765;DHT22;11549;50.852;3.816;2023-11-19T01:51:43;13.90;99.90
22765;DHT22;11549;50.852;3.816;2023-11-19T01:54:11;14.00;99.90
22765;DHT22;11549;50.852;3.816;2023-11-19T01:56:40;14.00;99.90
22765;DHT22;11549;50.852;3.816;2023-11-19T01:59:10;13.90;99.90
22765;DHT22;11549;50.852;3.816;2023-11-19T02:04:17;13.80;99.90
22765;DHT22;11549;50.852;3.816;2023-11-19T02:06:48;13.80;99.90
22765;DHT22;11549;50.852;3.816;2023-11-19T02:09:19;13.80;99.90
22765;DHT22;11549;50.852;3.816;2023-11-19T02:11:48;13.80;99.90
22765;DHT22;11549;50.852;3.816;2023-11-19T02:14:18;13.90;99.90
22765;DHT22;11549;50.852;3.816;2023-11-19T02:16:47;13.80;99.90
22765;DHT22;11549;50.852;3.816;2023-11-19T02:19:19;13.90;99.90
22765;DHT22;11549;50.852;3.816;2023-11-19T02:21:47;13.80;99.90
22765;DHT22;11549;50.852;3.816;2023-11-19T02:24:17;13.80;99.90
22765;DHT22;11549;50.852;3.816;2023-11-19T02:26:55;13.80;99.90
22765;DHT22;11549;50.852;3.816;2023-11-19T02:29:26;13.80;99.90
22765;DHT22;11549;50.852;3.816;2023-11-19T02:31:55;13.70;99.90
22765;DHT22;11549;50.852;3.816;2023-11-19T02:34:23;13.70;99.90
22765;DHT22;11549;50.852;3.816;2023-11-19T02:36:52;13.70;99.90
22765;DHT22;11549;50.852;3.816;2023-11-19T02:39:21;13.70;99.90
22765;DHT22;11549;50.852;3.816;2023-11-19T02:41:49;13.70;99.90
22765;DHT22;11549;50.852;3.816;2023-11-19T02:44:19;13.70;99.90
22765;DHT22;11549;50.852;3.816;2023-11-19T02:46:50;13.70;99.90
22765;DHT22;11549;50.852;3.816;2023-11-19T02:49:18;13.60;99.90
22765;DHT22;11549;50.852;3.816;2023-11-19T02:51:47;13.50;99.90
22765;DHT22;11549;50.852;3.816;2023-11-19T02:54:16;13.50;99.90
22765;DHT22;11549;50.852;3.816;2023-11-19T02:56:44;13.40;99.90
22765;DHT22;11549;50.852;3.816;2023-11-19T02:59:14;13.50;99.90
22765;DHT22;11549;50.852;3.816;2023-11-19T03:01:57;13.50;99.90
22765;DHT22;11549;50.852;3.816;2023-11-19T03:04:26;13.50;99.90
22765;DHT22;11549;50.852;3.816;2023-11-19T03:06:55;13.50;99.90
22765;DHT22;11549;50.852;3.816;2023-11-19T03:09:24;13.40;99.90
22765;DHT22;11549;50.852;3.816;2023-11-19T03:11:53;13.30;99.90
22765;DHT22;11549;50.852;3.816;2023-11-19T03:14:21;13.30;99.90
22765;DHT22;11549;50.852;3.816;2023-11-19T03:16:50;13.20;99.90
22765;DHT22;11549;50.852;3.816;2023-11-19T03:19:19;13.20;99.90
22765;DHT22;11549;50.852;3.816;2023-11-19T03:21:50;13.20;99.90
22765;DHT22;11549;50.852;3.816;2023-11-19T03:24:19;13.20;99.90
22765;DHT22;11549;50.852;3.816;2023-11-19T03:26:48;13.20;99.90
22765;DHT22;11549;50.852;3.816;2023-11-19T03:29:18;13.20;99.90
22765;DHT22;11549;50.852;3.816;2023-11-19T03:31:46;13.10;99.90
22765;DHT22;11549;50.852;3.816;2023-11-19T03:34:15;13.10;99.90
22765;DHT22;11549;50.852;3.816;2023-11-19T03:36:45;13.10;99.90
22765;DHT22;11549;50.852;3.816;2023-11-19T03:39:13;13.10;99.90
22765;DHT22;11549;50.852;3.816;2023-11-19T03:41:41;13.10;99.90
22765;DHT22;11549;50.852;3.816;2023-11-19T03:44:13;13.10;99.90
22765;DHT22;11549;50.852;3.816;2023-11-19T03:46:42;13.10;99.90
22765;DHT22;11549;50.852;3.816;2023-11-19T03:49:11;13.20;99.90
22765;DHT22;11549;50.852;3.816;2023-11-19T03:51:39;13.20;99.90
22765;DHT22;11549;50.852;3.816;2023-11-19T03:54:09;13.20;99.90
22765;DHT22;11549;50.852;3.816;2023-11-19T03:56:38;13.30;99.90
22765;DHT22;11549;50.852;3.816;2023-11-19T03:59:07;13.30;99.90
22765;DHT22;11549;50.852;3.816;2023-11-19T04:01:36;13.20;99.90
22765;DHT22;11549;50.852;3.816;2023-11-19T04:04:05;13.20;99.90
22765;DHT22;11549;50.852;3.816;2023-11-19T04:06:33;13.20;99.90
22765;DHT22;11549;50.852;3.816;2023-11-19T04:09:02;13.20;99.90
22765;DHT22;11549;50.852;3.816;2023-11-19T04:11:32;13.20;99.90
22765;DHT22;11549;50.852;3.816;2023-11-19T04:14:01;13.10;99.90
22765;DHT22;11549;50.852;3.816;2023-11-19T04:16:29;13.10;99.90
22765;DHT22;11549;50.852;3.816;2023-11-19T04:18:57;13.10;99.90
22765;DHT22;11549;50.852;3.816;2023-11-19T04:21:26;13.00;99.90
22765;DHT22;11549;50.852;3.816;2023-11-19T04:23:54;12.90;99.90
22765;DHT22;11549;50.852;3.816;2023-11-19T04:26:23;13.00;99.90
22765;DHT22;11549;50.852;3.816;2023-11-19T04:28:52;13.00;99.90
22765;DHT22;11549;50.852;3.816;2023-11-19T04:31:21;12.80;99.90
22765;DHT22;11549;50.852;3.816;2023-11-19T04:33:49;12.90;99.90
22765;DHT22;11549;50.852;3.816;2023-11-19T04:36:21;12.90;99.90
22765;DHT22;11549;50.852;3.816;2023-11-19T04:38:51;12.90;99.90
22765;DHT22;11549;50.852;3.816;2023-11-19T04:41:19;12.90;99.90
22765;DHT22;11549;50.852;3.816;2023-11-19T04:43:47;12.80;99.90
22765;DHT22;11549;50.852;3.816;2023-11-19T04:46:17;12.90;99.90
22765;DHT22;11549;50.852;3.816;2023-11-19T04:48:46;12.90;99.90
22765;DHT22;11549;50.852;3.816;2023-11-19T04:51:14;12.90;99.90
22765;DHT22;11549;50.852;3.816;2023-11-19T04:53:43;12.90;99.90
22765;DHT22;11549;50.852;3.816;2023-11-19T04:56:11;12.90;99.90
22765;DHT22;11549;50.852;3.816;2023-11-19T04:58:40;12.80;99.90
22765;DHT22;11549;50.852;3.816;2023-11-19T05:01:13;12.80;99.90
22765;DHT22;11549;50.852;3.816;2023-11-19T05:03:44;12.80;99.90
22765;DHT22;11549;50.852;3.816;2023-11-19T05:06:13;12.80;99.90
22765;DHT22;11549;50.852;3.816;2023-11-19T05:08:42;12.70;99.90
22765;DHT22;11549;50.852;3.816;2023-11-19T05:11:11;12.70;99.90
22765;DHT22;11549;50.852;3.816;2023-11-19T05:13:44;12.70;99.90
22765;DHT22;11549;50.852;3.816;2023-11-19T05:16:13;12.70;99.90
22765;DHT22;11549;50.852;3.816;2023-11-19T05:18:43;12.80;99.90
22765;DHT22;11549;50.852;3.816;2023-11-19T05:21:12;12.80;99.90
22765;DHT22;11549;50.852;3.816;2023-11-19T05:23:40;12.80;99.90
22765;DHT22;11549;50.852;3.816;2023-11-19T05:26:09;12.90;99.90
22765;DHT22;11549;50.852;3.816;2023-11-19T05:28:38;12.80;99.90
22765;DHT22;11549;50.852;3.816;2023-11-19T05:31:07;12.80;99.90
22765;DHT22;11549;50.852;3.816;2023-11-19T05:33:35;12.80;99.90
22765;DHT22;11549;50.852;3.816;2023-11-19T05:36:06;12.70;99.90
22765;DHT22;11549;50.852;3.816;2023-11-19T05:38:35;12.80;99.90
22765;DHT22;11549;50.852;3.816;2023-11-19T05:41:04;12.70;99.90
22765;DHT22;11549;50.852;3.816;2023-11-19T05:43:33;12.60;99.90
22765;DHT22;11549;50.852;3.816;2023-11-19T05:46:02;12.60;99.90
22765;DHT22;11549;50.852;3.816;2023-11-19T05:48:45;12.60;99.90
22765;DHT22;11549;50.852;3.816;2023-11-19T05:51:15;12.60;99.90
22765;DHT22;11549;50.852;3.816;2023-11-19T05:53:44;12.50;99.90
22765;DHT22;11549;50.852;3.816;2023-11-19T05:56:13;12.50;99.90
22765;DHT22;11549;50.852;3.816;2023-11-19T05:58:43;12.50;99.90
22765;DHT22;11549;50.852;3.816;2023-11-19T06:01:12;12.50;99.90
22765;DHT22;11549;50.852;3.816;2023-11-19T06:03:40;12.40;99.90
22765;DHT22;11549;50.852;3.816;2023-11-19T06:06:10;12.40;99.90
22765;DHT22;11549;50.852;3.816;2023-11-19T06:08:40;12.40;99.90
22765;DHT22;11549;50.852;3.816;2023-11-19T06:11:10;12.30;99.90
22765;DHT22;11549;50.852;3.816;2023-11-19T06:13:41;12.30;99.90
22765;DHT22;11549;50.852;3.816;2023-11-19T06:16:10;12.30;99.90
22765;DHT22;11549;50.852;3.816;2023-11-19T06:18:39;12.30;99.90
22765;DHT22;11549;50.852;3.816;2023-11-19T06:21:08;12.40;99.90
22765;DHT22;11549;50.852;3.816;2023-11-19T06:23:37;12.40;99.90
22765;DHT22;11549;50.852;3.816;2023-11-19T06:26:07;12.20;99.90
22765;DHT22;11549;50.852;3.816;2023-11-19T06:28:35;12.30;99.90
22765;DHT22;11549;50.852;3.816;2023-11-19T06:31:04;12.30;99.90
22765;DHT22;11549;50.852;3.816;2023-11-19T06:33:33;12.20;99.90
22765;DHT22;11549;50.852;3.816;2023-11-19T06:36:01;12.20;99.90
22765;DHT22;11549;50.852;3.816;2023-11-19T06:38:30;12.20;99.90
22765;DHT22;11549;50.852;3.816;2023-11-19T06:40:58;12.20;99.90
22765;DHT22;11549;50.852;3.816;2023-11-19T06:43:27;12.20;99.90
22765;DHT22;11549;50.852;3.816;2023-11-19T06:46:15;12.30;99.90
22765;DHT22;11549;50.852;3.816;2023-11-19T06:48:43;12.30;99.90
22765;DHT22;11549;50.852;3.816;2023-11-19T06:51:12;12.30;99.90
22765;DHT22;11549;50.852;3.816;2023-11-19T06:53:40;12.30;99.90
22765;DHT22;11549;50.852;3.816;2023-11-19T06:56:20;12.30;99.90
22765;DHT22;11549;50.852;3.816;2023-11-19T06:58:50;12.40;99.90
22765;DHT22;11549;50.852;3.816;2023-11-19T07:01:19;12.30;99.90
22765;DHT22;11549;50.852;3.816;2023-11-19T07:03:48;12.30;99.90
22765;DHT22;11549;50.852;3.816;2023-11-19T07:06:17;12.40;99.90
22765;DHT22;11549;50.852;3.816;2023-11-19T07:08:45;12.40;99.90
22765;DHT22;11549;50.852;3.816;2023-11-19T07:11:13;12.30;99.90
22765;DHT22;11549;50.852;3.816;2023-11-19T07:13:43;12.30;99.90
22765;DHT22;11549;50.852;3.816;2023-11-19T07:16:15;12.20;99.90
22765;DHT22;11549;50.852;3.816;2023-11-19T07:18:43;12.20;99.90
22765;DHT22;11549;50.852;3.816;2023-11-19T07:21:12;12.20;99.90
22765;DHT22;11549;50.852;3.816;2023-11-19T07:23:41;12.30;99.90
22765;DHT22;11549;50.852;3.816;2023-11-19T07:26:09;12.30;99.90
22765;DHT22;11549;50.852;3.816;2023-11-19T07:28:37;12.30;99.90
22765;DHT22;11549;50.852;3.816;2023-11-19T07:31:07;12.10;99.90
22765;DHT22;11549;50.852;3.816;2023-11-19T07:33:37;12.20;99.90
22765;DHT22;11549;50.852;3.816;2023-11-19T07:36:06;12.20;99.90
22765;DHT22;11549;50.852;3.816;2023-11-19T07:38:35;12.20;99.90
22765;DHT22;11549;50.852;3.816;2023-11-19T07:41:04;12.20;99.90
22765;DHT22;11549;50.852;3.816;2023-11-19T07:43:32;12.10;99.90
22765;DHT22;11549;50.852;3.816;2023-11-19T07:46:01;12.10;99.90
22765;DHT22;11549;50.852;3.816;2023-11-19T07:48:30;12.20;99.90
22765;DHT22;11549;50.852;3.816;2023-11-19T07:51:00;12.30;99.90
22765;DHT22;11549;50.852;3.816;2023-11-19T07:53:28;12.40;99.90
22765;DHT22;11549;50.852;3.816;2023-11-19T07:55:56;12.50;99.90
22765;DHT22;11549;50.852;3.816;2023-11-19T07:58:26;12.60;99.90
22765;DHT22;11549;50.852;3.816;2023-11-19T08:00:54;12.70;99.90
22765;DHT22;11549;50.852;3.816;2023-11-19T08:03:23;12.80;99.90
22765;DHT22;11549;50.852;3.816;2023-11-19T08:05:51;12.90;99.90
22765;DHT22;11549;50.852;3.816;2023-11-19T08:08:21;12.90;99.90
22765;DHT22;11549;50.852;3.816;2023-11-19T08:10:49;12.80;99.90
22765;DHT22;11549;50.852;3.816;2023-11-19T08:13:18;12.70;99.90
22765;DHT22;11549;50.852;3.816;2023-11-19T08:15:47;12.60;99.90
22765;DHT22;11549;50.852;3.816;2023-11-19T08:18:16;12.70;99.90
22765;DHT22;11549;50.852;3.816;2023-11-19T08:20:45;12.60;99.90
22765;DHT22;11549;50.852;3.816;2023-11-19T08:23:17;12.60;99.90
22765;DHT22;11549;50.852;3.816;2023-11-19T08:25:46;12.50;99.90
22765;DHT22;11549;50.852;3.816;2023-11-19T08:28:15;12.50;99.90
22765;DHT22;11549;50.852;3.816;2023-11-19T08:30:43;12.50;99.90
22765;DHT22;11549;50.852;3.816;2023-11-19T08:33:12;12.50;99.90
22765;DHT22;11549;50.852;3.816;2023-11-19T08:35:41;12.40;99.90
22765;DHT22;11549;50.852;3.816;2023-11-19T08:38:10;12.60;99.90
22765;DHT22;11549;50.852;3.816;2023-11-19T08:40:38;12.60;99.90
22765;DHT22;11549;50.852;3.816;2023-11-19T08:43:08;12.80;99.90
22765;DHT22;11549;50.852;3.816;2023-11-19T08:45:37;13.00;99.90
22765;DHT22;11549;50.852;3.816;2023-11-19T08:48:05;13.00;99.90
22765;DHT22;11549;50.852;3.816;2023-11-19T08:50:34;12.80;99.90
22765;DHT22;11549;50.852;3.816;2023-11-19T08:53:02;12.70;99.90
22765;DHT22;11549;50.852;3.816;2023-11-19T08:55:33;12.90;99.90
22765;DHT22;11549;50.852;3.816;2023-11-19T08:58:02;13.00;99.90
22765;DHT22;11549;50.852;3.816;2023-11-19T09:00:32;13.20;99.90
22765;DHT22;11549;50.852;3.816;2023-11-19T09:03:00;13.30;99.90
22765;DHT22;11549;50.852;3.816;2023-11-19T09:05:28;13.40;99.90
22765;DHT22;11549;50.852;3.816;2023-11-19T09:07:57;13.40;99.90
22765;DHT22;11549;50.852;3.816;2023-11-19T09:10:25;13.50;99.90
22765;DHT22;11549;50.852;3.816;2023-11-19T09:12:54;13.40;99.90
22765;DHT22;11549;50.852;3.816;2023-11-19T09:15:25;13.50;99.90
22765;DHT22;11549;50.852;3.816;2023-11-19T09:17:55;13.70;99.90
22765;DHT22;11549;50.852;3.816;2023-11-19T09:20:23;14.00;99.90
22765;DHT22;11549;50.852;3.816;2023-11-19T09:22:51;14.40;99.90
22765;DHT22;11549;50.852;3.816;2023-11-19T09:25:20;14.60;99.90
22765;DHT22;11549;50.852;3.816;2023-11-19T09:27:48;14.90;99.90
22765;DHT22;11549;50.852;3.816;2023-11-19T09:30:17;15.10;99.90
22765;DHT22;11549;50.852;3.816;2023-11-19T09:32:45;15.20;99.90
22765;DHT22;11549;50.852;3.816;2023-11-19T09:35:15;15.10;99.90
22765;DHT22;11549;50.852;3.816;2023-11-19T09:37:43;15.20;99.90
22765;DHT22;11549;50.852;3.816;2023-11-19T09:40:12;15.10;99.90
22765;DHT22;11549;50.852;3.816;2023-11-19T09:42:43;15.20;99.90
22765;DHT22;11549;50.852;3.816;2023-11-19T09:45:14;15.30;99.90
22765;DHT22;11549;50.852;3.816;2023-11-19T09:47:44;15.40;99.90
22765;DHT22;11549;50.852;3.816;2023-11-19T09:50:19;15.70;99.90
22765;DHT22;11549;50.852;3.816;2023-11-19T09:52:48;16.00;99.90
22765;DHT22;11549;50.852;3.816;2023-11-19T09:55:17;16.10;99.90
22765;DHT22;11549;50.852;3.816;2023-11-19T09:57:47;15.90;99.90
22765;DHT22;11549;50.852;3.816;2023-11-19T10:00:17;15.90;99.90
22765;DHT22;11549;50.852;3.816;2023-11-19T10:02:48;15.60;99.90
22765;DHT22;11549;50.852;3.816;2023-11-19T10:05:20;15.50;99.90
22765;DHT22;11549;50.852;3.816;2023-11-19T10:07:50;15.50;99.90
22765;DHT22;11549;50.852;3.816;2023-11-19T10:10:19;15.50;99.90
22765;DHT22;11549;50.852;3.816;2023-11-19T10:12:47;15.50;99.90
22765;DHT22;11549;50.852;3.816;2023-11-19T10:15:21;15.40;99.90
22765;DHT22;11549;50.852;3.816;2023-11-19T10:17:51;15.10;99.90
22765;DHT22;11549;50.852;3.816;2023-11-19T10:20:21;15.00;99.90
22765;DHT22;11549;50.852;3.816;2023-11-19T10:22:53;14.70;99.90
22765;DHT22;11549;50.852;3.816;2023-11-19T10:25:23;14.60;99.90
22765;DHT22;11549;50.852;3.816;2023-11-19T10:27:51;14.40;99.90
22765;DHT22;11549;50.852;3.816;2023-11-19T10:30:21;14.40;99.90
22765;DHT22;11549;50.852;3.816;2023-11-19T10:33:05;14.40;99.90
22765;DHT22;11549;50.852;3.816;2023-11-19T10:35:50;14.30;99.90
22765;DHT22;11549;50.852;3.816;2023-11-19T10:38:22;14.20;99.90
22765;DHT22;11549;50.852;3.816;2023-11-19T10:40:51;14.20;99.90
22765;DHT22;11549;50.852;3.816;2023-11-19T10:43:21;14.20;99.90
22765;DHT22;11549;50.852;3.816;2023-11-19T10:45:50;14.30;99.90
22765;DHT22;11549;50.852;3.816;2023-11-19T10:48:19;14.30;99.90
22765;DHT22;11549;50.852;3.816;2023-11-19T10:50:53;14.30;99.90
22765;DHT22;11549;50.852;3.816;2023-11-19T10:53:23;14.30;99.90
22765;DHT22;11549;50.852;3.816;2023-11-19T10:55:56;14.10;99.90
22765;DHT22;11549;50.852;3.816;2023-11-19T10:58:28;14.10;99.90
22765;DHT22;11549;50.852;3.816;2023-11-19T11:01:01;14.20;99.90
22765;DHT22;11549;50.852;3.816;2023-11-19T11:03:37;14.40;99.90
22765;DHT22;11549;50.852;3.816;2023-11-19T11:06:09;14.50;99.90
22765;DHT22;11549;50.852;3.816;2023-11-19T11:08:39;14.60;99.90
22765;DHT22;11549;50.852;3.816;2023-11-19T11:11:08;14.80;99.90
22765;DHT22;11549;50.852;3.816;2023-11-19T11:13:38;15.00;99.90
22765;DHT22;11549;50.852;3.816;2023-11-19T11:16:09;15.20;99.90
22765;DHT22;11549;50.852;3.816;2023-11-19T11:18:38;15.30;99.90
22765;DHT22;11549;50.852;3.816;2023-11-19T11:21:11;15.30;99.90
22765;DHT22;11549;50.852;3.816;2023-11-19T11:24:09;15.50;99.90
22765;DHT22;11549;50.852;3.816;2023-11-19T11:27:02;15.70;99.90
22765;DHT22;11549;50.852;3.816;2023-11-19T11:29:39;15.90;99.90
22765;DHT22;11549;50.852;3.816;2023-11-19T11:32:18;15.90;99.90
22765;DHT22;11549;50.852;3.816;2023-11-19T11:35:03;15.80;99.90
22765;DHT22;11549;50.852;3.816;2023-11-19T11:37:42;15.70;99.90
22765;DHT22;11549;50.852;3.816;2023-11-19T11:40:14;15.70;99.90
22765;DHT22;11549;50.852;3.816;2023-11-19T11:42:43;15.60;99.90
22765;DHT22;11549;50.852;3.816;2023-11-19T11:45:13;15.40;99.90
22765;DHT22;11549;50.852;3.816;2023-11-19T11:48:08;15.40;99.90
22765;DHT22;11549;50.852;3.816;2023-11-19T11:50:52;15.20;99.90
22765;DHT22;11549;50.852;3.816;2023-11-19T11:53:24;15.00;99.90
22765;DHT22;11549;50.852;3.816;2023-11-19T11:55:53;14.80;99.90
22765;DHT22;11549;50.852;3.816;2023-11-19T11:58:26;14.60;99.90
22765;DHT22;11549;50.852;3.816;2023-11-19T12:00:57;14.50;99.90
22765;DHT22;11549;50.852;3.816;2023-11-19T12:03:28;14.20;99.90
22765;DHT22;11549;50.852;3.816;2023-11-19T12:05:57;14.10;99.90
22765;DHT22;11549;50.852;3.816;2023-11-19T12:08:29;14.00;99.90
22765;DHT22;11549;50.852;3.816;2023-11-19T12:10:58;13.80;99.90
22765;DHT22;11549;50.852;3.816;2023-11-19T12:13:54;13.60;99.90
22765;DHT22;11549;50.852;3.816;2023-11-19T12:16:29;13.50;99.90
22765;DHT22;11549;50.852;3.816;2023-11-19T12:19:04;13.40;99.90
22765;DHT22;11549;50.852;3.816;2023-11-19T12:21:34;13.50;99.90
22765;DHT22;11549;50.852;3.816;2023-11-19T12:24:07;13.70;99.90
22765;DHT22;11549;50.852;3.816;2023-11-19T12:26:37;13.80;99.90
22765;DHT22;11549;50.852;3.816;2023-11-19T12:29:06;13.90;99.90
22765;DHT22;11549;50.852;3.816;2023-11-19T12:31:36;13.90;99.90
22765;DHT22;11549;50.852;3.816;2023-11-19T12:34:06;13.80;99.90
22765;DHT22;11549;50.852;3.816;2023-11-19T12:36:40;13.90;99.90
22765;DHT22;11549;50.852;3.816;2023-11-19T12:39:13;14.00;99.90
22765;DHT22;11549;50.852;3.816;2023-11-19T12:41:52;14.10;99.90
22765;DHT22;11549;50.852;3.816;2023-11-19T12:44:22;14.20;99.90
22765;DHT22;11549;50.852;3.816;2023-11-19T12:47:00;14.20;99.90
22765;DHT22;11549;50.852;3.816;2023-11-19T12:49:29;14.20;99.90
22765;DHT22;11549;50.852;3.816;2023-11-19T12:51:57;14.20;99.90
22765;DHT22;11549;50.852;3.816;2023-11-19T12:54:35;14.40;99.90
22765;DHT22;11549;50.852;3.816;2023-11-19T12:57:04;14.50;99.90
22765;DHT22;11549;50.852;3.816;2023-11-19T12:59:33;14.50;99.90
22765;DHT22;11549;50.852;3.816;2023-11-19T13:02:02;14.50;99.90
22765;DHT22;11549;50.852;3.816;2023-11-19T13:04:33;14.40;99.90
22765;DHT22;11549;50.852;3.816;2023-11-19T13:07:02;14.40;99.90
22765;DHT22;11549;50.852;3.816;2023-11-19T13:09:32;14.40;99.90
22765;DHT22;11549;50.852;3.816;2023-11-19T13:12:13;14.40;99.90
22765;DHT22;11549;50.852;3.816;2023-11-19T13:14:42;14.40;99.90
22765;DHT22;11549;50.852;3.816;2023-11-19T13:17:15;14.40;99.90
22765;DHT22;11549;50.852;3.816;2023-11-19T13:19:46;14.40;99.90
22765;DHT22;11549;50.852;3.816;2023-11-19T13:22:15;14.40;99.90
22765;DHT22;11549;50.852;3.816;2023-11-19T13:24:43;14.20;99.90
22765;DHT22;11549;50.852;3.816;2023-11-19T13:27:13;14.10;99.90
22765;DHT22;11549;50.852;3.816;2023-11-19T13:29:42;14.10;99.90
22765;DHT22;11549;50.852;3.816;2023-11-19T13:32:10;14.10;99.90
22765;DHT22;11549;50.852;3.816;2023-11-19T13:34:39;14.10;99.90
22765;DHT22;11549;50.852;3.816;2023-11-19T13:37:07;14.00;99.90
22765;DHT22;11549;50.852;3.816;2023-11-19T13:39:35;14.10;99.90
22765;DHT22;11549;50.852;3.816;2023-11-19T13:42:04;14.00;99.90
22765;DHT22;11549;50.852;3.816;2023-11-19T13:44:37;14.10;99.90
22765;DHT22;11549;50.852;3.816;2023-11-19T13:47:05;14.00;99.90
22765;DHT22;11549;50.852;3.816;2023-11-19T13:49:34;14.00;99.90
22765;DHT22;11549;50.852;3.816;2023-11-19T13:52:03;13.90;99.90
22765;DHT22;11549;50.852;3.816;2023-11-19T13:54:31;13.80;99.90
22765;DHT22;11549;50.852;3.816;2023-11-19T13:56:59;13.70;99.90
22765;DHT22;11549;50.852;3.816;2023-11-19T13:59:31;13.70;99.90
22765;DHT22;11549;50.852;3.816;2023-11-19T14:02:01;13.70;99.90
22765;DHT22;11549;50.852;3.816;2023-11-19T14:04:30;13.70;99.90
22765;DHT22;11549;50.852;3.816;2023-11-19T14:06:58;13.60;99.90
22765;DHT22;11549;50.852;3.816;2023-11-19T14:09:27;13.50;99.90
22765;DHT22;11549;50.852;3.816;2023-11-19T14:11:56;13.50;99.90
22765;DHT22;11549;50.852;3.816;2023-11-19T14:14:24;13.50;99.90
22765;DHT22;11549;50.852;3.816;2023-11-19T14:16:53;13.60;99.90
22765;DHT22;11549;50.852;3.816;2023-11-19T14:19:41;13.50;99.90
22765;DHT22;11549;50.852;3.816;2023-11-19T14:22:10;13.50;99.90
22765;DHT22;11549;50.852;3.816;2023-11-19T14:24:38;13.50;99.90
22765;DHT22;11549;50.852;3.816;2023-11-19T14:27:09;13.50;99.90
22765;DHT22;11549;50.852;3.816;2023-11-19T14:29:37;13.50;99.90
22765;DHT22;11549;50.852;3.816;2023-11-19T14:32:06;13.60;99.90
22765;DHT22;11549;50.852;3.816;2023-11-19T14:34:35;13.50;99.90
22765;DHT22;11549;50.852;3.816;2023-11-19T14:37:04;13.40;99.90
22765;DHT22;11549;50.852;3.816;2023-11-19T14:39:33;13.40;99.90
22765;DHT22;11549;50.852;3.816;2023-11-19T14:42:02;13.30;99.90
22765;DHT22;11549;50.852;3.816;2023-11-19T14:44:32;13.30;99.90
22765;DHT22;11549;50.852;3.816;2023-11-19T14:47:00;13.30;99.90
22765;DHT22;11549;50.852;3.816;2023-11-19T14:49:29;13.30;99.90
22765;DHT22;11549;50.852;3.816;2023-11-19T14:51:58;13.20;99.90
22765;DHT22;11549;50.852;3.816;2023-11-19T14:54:45;13.20;99.90
22765;DHT22;11549;50.852;3.816;2023-11-19T14:57:13;13.30;99.90
22765;DHT22;11549;50.852;3.816;2023-11-19T14:59:42;13.20;99.90
22765;DHT22;11549;50.852;3.816;2023-11-19T15:02:10;13.20;99.90
22765;DHT22;11549;50.852;3.816;2023-11-19T15:04:40;13.20;99.90
22765;DHT22;11549;50.852;3.816;2023-11-19T15:07:08;13.20;99.90
22765;DHT22;11549;50.852;3.816;2023-11-19T15:09:37;13.20;99.90
22765;DHT22;11549;50.852;3.816;2023-11-19T15:12:07;13.30;99.90
22765;DHT22;11549;50.852;3.816;2023-11-19T15:14:36;13.20;99.90
22765;DHT22;11549;50.852;3.816;2023-11-19T15:17:04;13.20;99.90
22765;DHT22;11549;50.852;3.816;2023-11-19T15:19:34;13.30;99.90
22765;DHT22;11549;50.852;3.816;2023-11-19T15:22:03;13.30;99.90
22765;DHT22;11549;50.852;3.816;2023-11-19T15:24:32;13.30;99.90
22765;DHT22;11549;50.852;3.816;2023-11-19T15:27:01;13.20;99.90
22765;DHT22;11549;50.852;3.816;2023-11-19T15:29:33;13.10;99.90
22765;DHT22;11549;50.852;3.816;2023-11-19T15:32:01;13.00;99.90
22765;DHT22;11549;50.852;3.816;2023-11-19T15:34:30;12.90;99.90
22765;DHT22;11549;50.852;3.816;2023-11-19T15:36:58;12.90;99.90
22765;DHT22;11549;50.852;3.816;2023-11-19T15:39:27;12.80;99.90
22765;DHT22;11549;50.852;3.816;2023-11-19T15:41:56;12.80;99.90
22765;DHT22;11549;50.852;3.816;2023-11-19T15:44:26;12.80;99.90
22765;DHT22;11549;50.852;3.816;2023-11-19T15:46:57;12.80;99.90
22765;DHT22;11549;50.852;3.816;2023-11-19T15:49:25;12.80;99.90
22765;DHT22;11549;50.852;3.816;2023-11-19T15:51:54;12.80;99.90